Sable Island, Canada
Current Conditions -  °F | °C
As of 2:00 PM on Saturday 25 Oct 2014 (Local Time) from CESA Reporting Station
Drizzle Drizzle  
Wind Chill: 57°   Ceiling: 900
Heat Index: 57°   Visibility: 9mi
Dew Point: 49°   Wind: 18mph
Humidity: 74%   Direction: 270°W
Pressure: 29.41"   Gusts: 24mph
Location:  43.95°N, 59.85°W
Report Text: CESA 251700Z AUTO 27016G21KT 9SM -DZ OVC009 14/10 A2941 RMK SLP962 PK WND 28024/// T01410096 70002 WSI/SWOB
Loading
Personal Weather Stations






























Interactive Weather Map
Tropical Storm Tracking
New forecast layout! Learn more

10-Day Weather Forecast

Advertisements
Track Severe Weather on mobile